sensor_id;sensor_type;location;lat;lon;timestamp;temperature;humidity
63013;DHT22;62113;45.624;11.700;2023-03-01T00:00:13;8.20;46.60
63013;DHT22;62113;45.624;11.700;2023-03-01T00:02:38;8.20;46.60
63013;DHT22;62113;45.624;11.700;2023-03-01T00:05:04;8.20;46.60
63013;DHT22;62113;45.624;11.700;2023-03-01T00:07:30;8.20;46.70
63013;DHT22;62113;45.624;11.700;2023-03-01T00:09:56;8.20;46.80
63013;DHT22;62113;45.624;11.700;2023-03-01T00:12:21;8.20;46.90
63013;DHT22;62113;45.624;11.700;2023-03-01T00:14:47;8.20;46.90
63013;DHT22;62113;45.624;11.700;2023-03-01T00:17:12;8.10;46.90
63013;DHT22;62113;45.624;11.700;2023-03-01T00:19:38;8.10;47.00
63013;DHT22;62113;45.624;11.700;2023-03-01T00:22:04;8.00;47.00
63013;DHT22;62113;45.624;11.700;2023-03-01T00:24:30;8.00;47.10
63013;DHT22;62113;45.624;11.700;2023-03-01T00:26:55;8.00;47.10
63013;DHT22;62113;45.624;11.700;2023-03-01T00:29:23;8.00;47.20
63013;DHT22;62113;45.624;11.700;2023-03-01T00:31:49;8.00;47.20
63013;DHT22;62113;45.624;11.700;2023-03-01T00:34:14;8.00;47.20
63013;DHT22;62113;45.624;11.700;2023-03-01T00:36:40;8.00;47.20
63013;DHT22;62113;45.624;11.700;2023-03-01T00:39:09;8.00;47.20
63013;DHT22;62113;45.624;11.700;2023-03-01T00:41:36;8.00;47.30
63013;DHT22;62113;45.624;11.700;2023-03-01T00:44:02;8.00;47.30
63013;DHT22;62113;45.624;11.700;2023-03-01T00:46:27;8.00;47.30
63013;DHT22;62113;45.624;11.700;2023-03-01T00:48:55;7.90;47.30
63013;DHT22;62113;45.624;11.700;2023-03-01T00:51:24;7.90;47.40
63013;DHT22;62113;45.624;11.700;2023-03-01T00:53:52;8.00;47.40
63013;DHT22;62113;45.624;11.700;2023-03-01T00:56:18;7.90;47.40
63013;DHT22;62113;45.624;11.700;2023-03-01T00:58:44;7.90;47.40
63013;DHT22;62113;45.624;11.700;2023-03-01T01:01:19;7.90;47.40
63013;DHT22;62113;45.624;11.700;2023-03-01T01:04:30;7.80;47.40
63013;DHT22;62113;45.624;11.700;2023-03-01T01:06:39;7.80;47.40
63013;DHT22;62113;45.624;11.700;2023-03-01T01:09:08;7.80;47.50
63013;DHT22;62113;45.624;11.700;2023-03-01T01:11:35;7.80;47.50
63013;DHT22;62113;45.624;11.700;2023-03-01T01:14:02;7.80;47.60
63013;DHT22;62113;45.624;11.700;2023-03-01T01:16:29;7.70;47.60
63013;DHT22;62113;45.624;11.700;2023-03-01T01:18:56;7.70;47.70
63013;DHT22;62113;45.624;11.700;2023-03-01T01:21:23;7.70;47.70
63013;DHT22;62113;45.624;11.700;2023-03-01T01:23:49;7.70;47.80
63013;DHT22;62113;45.624;11.700;2023-03-01T01:26:19;7.60;47.80
63013;DHT22;62113;45.624;11.700;2023-03-01T01:28:46;7.60;47.90
63013;DHT22;62113;45.624;11.700;2023-03-01T01:31:12;7.60;48.00
63013;DHT22;62113;45.624;11.700;2023-03-01T01:33:38;7.60;48.00
63013;DHT22;62113;45.624;11.700;2023-03-01T01:36:05;7.50;48.10
63013;DHT22;62113;45.624;11.700;2023-03-01T01:38:31;7.50;48.20
63013;DHT22;62113;45.624;11.700;2023-03-01T01:40:56;7.50;48.20
63013;DHT22;62113;45.624;11.700;2023-03-01T01:43:28;7.40;48.30
63013;DHT22;62113;45.624;11.700;2023-03-01T01:45:58;7.40;48.30
63013;DHT22;62113;45.624;11.700;2023-03-01T01:48:32;7.40;48.40
63013;DHT22;62113;45.624;11.700;2023-03-01T01:51:08;7.40;48.50
63013;DHT22;62113;45.624;11.700;2023-03-01T01:53:35;7.40;48.50
63013;DHT22;62113;45.624;11.700;2023-03-01T01:56:02;7.40;48.50
63013;DHT22;62113;45.624;11.700;2023-03-01T01:58:29;7.40;48.60
63013;DHT22;62113;45.624;11.700;2023-03-01T02:00:55;7.40;48.70
63013;DHT22;62113;45.624;11.700;2023-03-01T02:03:31;7.40;48.70
63013;DHT22;62113;45.624;11.700;2023-03-01T02:08:40;7.40;48.70
63013;DHT22;62113;45.624;11.700;2023-03-01T02:11:08;7.40;48.70
63013;DHT22;62113;45.624;11.700;2023-03-01T02:13:34;7.40;48.80
63013;DHT22;62113;45.624;11.700;2023-03-01T02:16:04;7.40;48.80
63013;DHT22;62113;45.624;11.700;2023-03-01T02:18:30;7.40;48.80
63013;DHT22;62113;45.624;11.700;2023-03-01T02:23:28;7.40;48.90
63013;DHT22;62113;45.624;11.700;2023-03-01T02:30:58;7.40;49.00
63013;DHT22;62113;45.624;11.700;2023-03-01T02:33:44;7.40;49.20
63013;DHT22;62113;45.624;11.700;2023-03-01T02:36:19;7.40;49.10
63013;DHT22;62113;45.624;11.700;2023-03-01T02:38:47;7.40;49.20
63013;DHT22;62113;45.624;11.700;2023-03-01T02:41:15;7.40;49.20
63013;DHT22;62113;45.624;11.700;2023-03-01T02:43:42;7.40;49.30
63013;DHT22;62113;45.624;11.700;2023-03-01T02:46:15;7.40;49.20
63013;DHT22;62113;45.624;11.700;2023-03-01T02:48:44;7.40;49.30
63013;DHT22;62113;45.624;11.700;2023-03-01T02:54:05;7.40;49.40
63013;DHT22;62113;45.624;11.700;2023-03-01T02:56:32;7.40;49.40
63013;DHT22;62113;45.624;11.700;2023-03-01T02:58:58;7.40;49.40
63013;DHT22;62113;45.624;11.700;2023-03-01T03:01:27;7.40;49.50
63013;DHT22;62113;45.624;11.700;2023-03-01T03:04:03;7.40;49.50
63013;DHT22;62113;45.624;11.700;2023-03-01T03:06:29;7.40;49.50
63013;DHT22;62113;45.624;11.700;2023-03-01T03:08:55;7.50;49.60
63013;DHT22;62113;45.624;11.700;2023-03-01T03:11:20;7.50;49.50
63013;DHT22;62113;45.624;11.700;2023-03-01T03:13:46;7.50;49.60
63013;DHT22;62113;45.624;11.700;2023-03-01T03:16:13;7.50;49.60
63013;DHT22;62113;45.624;11.700;2023-03-01T03:18:39;7.50;49.70
63013;DHT22;62113;45.624;11.700;2023-03-01T03:21:08;7.50;49.70
63013;DHT22;62113;45.624;11.700;2023-03-01T03:23:36;7.50;49.60
63013;DHT22;62113;45.624;11.700;2023-03-01T03:26:02;7.50;49.70
63013;DHT22;62113;45.624;11.700;2023-03-01T03:28:30;7.50;49.70
63013;DHT22;62113;45.624;11.700;2023-03-01T03:30:56;7.50;49.60
63013;DHT22;62113;45.624;11.700;2023-03-01T03:33:22;7.50;49.70
63013;DHT22;62113;45.624;11.700;2023-03-01T03:35:49;7.50;49.70
63013;DHT22;62113;45.624;11.700;2023-03-01T03:38:18;7.60;49.80
63013;DHT22;62113;45.624;11.700;2023-03-01T03:41:03;7.60;49.70
63013;DHT22;62113;45.624;11.700;2023-03-01T03:43:31;7.60;49.80
63013;DHT22;62113;45.624;11.700;2023-03-01T03:45:57;7.60;49.80
63013;DHT22;62113;45.624;11.700;2023-03-01T03:48:24;7.50;49.80
63013;DHT22;62113;45.624;11.700;2023-03-01T03:50:51;7.50;49.80
63013;DHT22;62113;45.624;11.700;2023-03-01T03:53:18;7.50;49.90
63013;DHT22;62113;45.624;11.700;2023-03-01T03:55:44;7.50;49.90
63013;DHT22;62113;45.624;11.700;2023-03-01T03:58:10;7.40;49.90
63013;DHT22;62113;45.624;11.700;2023-03-01T04:00:41;7.40;50.00
63013;DHT22;62113;45.624;11.700;2023-03-01T04:03:07;7.40;50.10
63013;DHT22;62113;45.624;11.700;2023-03-01T04:05:33;7.30;50.10
63013;DHT22;62113;45.624;11.700;2023-03-01T04:07:59;7.30;50.10
63013;DHT22;62113;45.624;11.700;2023-03-01T04:10:30;7.30;50.20
63013;DHT22;62113;45.624;11.700;2023-03-01T04:12:56;7.20;50.20
63013;DHT22;62113;45.624;11.700;2023-03-01T04:15:23;7.20;50.40
63013;DHT22;62113;45.624;11.700;2023-03-01T04:17:50;7.20;50.30
63013;DHT22;62113;45.624;11.700;2023-03-01T04:20:19;7.20;50.30
63013;DHT22;62113;45.624;11.700;2023-03-01T04:22:51;7.20;50.40
63013;DHT22;62113;45.624;11.700;2023-03-01T04:25:17;7.20;50.40
63013;DHT22;62113;45.624;11.700;2023-03-01T04:27:43;7.20;50.50
63013;DHT22;62113;45.624;11.700;2023-03-01T04:30:09;7.20;50.60
63013;DHT22;62113;45.624;11.700;2023-03-01T04:32:35;7.20;50.60
63013;DHT22;62113;45.624;11.700;2023-03-01T04:35:01;7.20;50.50
63013;DHT22;62113;45.624;11.700;2023-03-01T04:37:27;7.20;50.50
63013;DHT22;62113;45.624;11.700;2023-03-01T04:39:53;7.20;50.70
63013;DHT22;62113;45.624;11.700;2023-03-01T04:42:19;7.20;50.60
63013;DHT22;62113;45.624;11.700;2023-03-01T04:44:45;7.20;50.70
63013;DHT22;62113;45.624;11.700;2023-03-01T04:47:11;7.20;50.80
63013;DHT22;62113;45.624;11.700;2023-03-01T04:49:37;7.20;50.80
63013;DHT22;62113;45.624;11.700;2023-03-01T04:52:03;7.20;50.80
63013;DHT22;62113;45.624;11.700;2023-03-01T04:54:33;7.20;50.90
63013;DHT22;62113;45.624;11.700;2023-03-01T04:56:59;7.20;50.90
63013;DHT22;62113;45.624;11.700;2023-03-01T04:59:25;7.20;50.80
63013;DHT22;62113;45.624;11.700;2023-03-01T05:01:53;7.20;50.90
63013;DHT22;62113;45.624;11.700;2023-03-01T05:04:24;7.20;50.90
63013;DHT22;62113;45.624;11.700;2023-03-01T05:06:50;7.20;50.90
63013;DHT22;62113;45.624;11.700;2023-03-01T05:09:16;7.20;50.90
63013;DHT22;62113;45.624;11.700;2023-03-01T05:11:42;7.30;50.90
63013;DHT22;62113;45.624;11.700;2023-03-01T05:14:08;7.30;50.80
63013;DHT22;62113;45.624;11.700;2023-03-01T05:16:35;7.30;50.80
63013;DHT22;62113;45.624;11.700;2023-03-01T05:19:02;7.30;50.80
63013;DHT22;62113;45.624;11.700;2023-03-01T05:21:37;7.30;50.80
63013;DHT22;62113;45.624;11.700;2023-03-01T05:24:23;7.30;50.80
63013;DHT22;62113;45.624;11.700;2023-03-01T05:26:49;7.40;50.90
63013;DHT22;62113;45.624;11.700;2023-03-01T05:29:17;7.30;50.70
63013;DHT22;62113;45.624;11.700;2023-03-01T05:31:43;7.40;50.60
63013;DHT22;62113;45.624;11.700;2023-03-01T05:34:09;7.40;50.70
63013;DHT22;62113;45.624;11.700;2023-03-01T05:36:34;7.40;50.60
63013;DHT22;62113;45.624;11.700;2023-03-01T05:39:00;7.40;50.60
63013;DHT22;62113;45.624;11.700;2023-03-01T05:41:26;7.40;50.60
63013;DHT22;62113;45.624;11.700;2023-03-01T05:43:51;7.50;50.70
63013;DHT22;62113;45.624;11.700;2023-03-01T05:46:17;7.50;50.60
63013;DHT22;62113;45.624;11.700;2023-03-01T05:48:42;7.40;50.60
63013;DHT22;62113;45.624;11.700;2023-03-01T05:51:09;7.40;50.70
63013;DHT22;62113;45.624;11.700;2023-03-01T05:53:34;7.40;50.80
63013;DHT22;62113;45.624;11.700;2023-03-01T05:56:03;7.40;50.80
63013;DHT22;62113;45.624;11.700;2023-03-01T05:58:29;7.50;50.80
63013;DHT22;62113;45.624;11.700;2023-03-01T06:00:54;7.40;50.90
63013;DHT22;62113;45.624;11.700;2023-03-01T06:03:20;7.40;51.10
63013;DHT22;62113;45.624;11.700;2023-03-01T06:05:45;7.40;51.10
63013;DHT22;62113;45.624;11.700;2023-03-01T06:08:12;7.40;51.10
63013;DHT22;62113;45.624;11.700;2023-03-01T06:10:38;7.40;51.30
63013;DHT22;62113;45.624;11.700;2023-03-01T06:13:04;7.40;51.50
63013;DHT22;62113;45.624;11.700;2023-03-01T06:15:30;7.40;51.30
63013;DHT22;62113;45.624;11.700;2023-03-01T06:17:56;7.40;51.30
63013;DHT22;62113;45.624;11.700;2023-03-01T06:20:24;7.40;51.40
63013;DHT22;62113;45.624;11.700;2023-03-01T06:22:50;7.50;51.30
63013;DHT22;62113;45.624;11.700;2023-03-01T06:25:20;7.50;51.40
63013;DHT22;62113;45.624;11.700;2023-03-01T06:27:46;7.50;51.40
63013;DHT22;62113;45.624;11.700;2023-03-01T06:30:13;7.60;51.30
63013;DHT22;62113;45.624;11.700;2023-03-01T06:32:39;7.60;51.40
63013;DHT22;62113;45.624;11.700;2023-03-01T06:35:13;7.70;51.30
63013;DHT22;62113;45.624;11.700;2023-03-01T06:37:39;7.70;51.20
63013;DHT22;62113;45.624;11.700;2023-03-01T06:40:07;7.70;51.10
63013;DHT22;62113;45.624;11.700;2023-03-01T06:42:36;7.70;51.10
63013;DHT22;62113;45.624;11.700;2023-03-01T06:45:03;7.70;51.00
63013;DHT22;62113;45.624;11.700;2023-03-01T06:47:29;7.80;50.90
63013;DHT22;62113;45.624;11.700;2023-03-01T06:49:55;7.80;50.90
63013;DHT22;62113;45.624;11.700;2023-03-01T06:52:20;7.80;50.90
63013;DHT22;62113;45.624;11.700;2023-03-01T06:54:46;7.90;50.80
63013;DHT22;62113;45.624;11.700;2023-03-01T06:57:11;8.00;50.80
63013;DHT22;62113;45.624;11.700;2023-03-01T06:59:37;8.10;50.70
63013;DHT22;62113;45.624;11.700;2023-03-01T07:02:03;8.10;50.60
63013;DHT22;62113;45.624;11.700;2023-03-01T07:04:28;8.10;50.50
63013;DHT22;62113;45.624;11.700;2023-03-01T07:06:55;8.20;50.30
63013;DHT22;62113;45.624;11.700;2023-03-01T07:09:22;8.20;50.20
63013;DHT22;62113;45.624;11.700;2023-03-01T07:11:48;8.20;50.20
63013;DHT22;62113;45.624;11.700;2023-03-01T07:14:14;8.30;50.20
63013;DHT22;62113;45.624;11.700;2023-03-01T07:16:40;8.30;50.20
63013;DHT22;62113;45.624;11.700;2023-03-01T07:19:05;8.40;50.20
63013;DHT22;62113;45.624;11.700;2023-03-01T07:21:31;8.40;50.10
63013;DHT22;62113;45.624;11.700;2023-03-01T07:23:57;8.50;50.00
63013;DHT22;62113;45.624;11.700;2023-03-01T07:26:23;8.60;50.00
63013;DHT22;62113;45.624;11.700;2023-03-01T07:28:48;8.70;49.80
63013;DHT22;62113;45.624;11.700;2023-03-01T07:31:14;8.80;49.70
63013;DHT22;62113;45.624;11.700;2023-03-01T07:33:40;8.90;49.60
63013;DHT22;62113;45.624;11.700;2023-03-01T07:36:06;9.10;49.40
63013;DHT22;62113;45.624;11.700;2023-03-01T07:38:32;9.30;49.20
63013;DHT22;62113;45.624;11.700;2023-03-01T07:40:59;9.50;49.00
63013;DHT22;62113;45.624;11.700;2023-03-01T07:43:24;9.70;48.70
63013;DHT22;62113;45.624;11.700;2023-03-01T07:45:50;9.70;48.50
63013;DHT22;62113;45.624;11.700;2023-03-01T07:48:16;9.90;48.40
63013;DHT22;62113;45.624;11.700;2023-03-01T07:50:42;10.00;48.40
63013;DHT22;62113;45.624;11.700;2023-03-01T07:53:09;10.20;48.30
63013;DHT22;62113;45.624;11.700;2023-03-01T07:55:35;10.20;48.00
63013;DHT22;62113;45.624;11.700;2023-03-01T07:58:00;10.40;48.10
63013;DHT22;62113;45.624;11.700;2023-03-01T08:00:26;10.70;48.10
63013;DHT22;62113;45.624;11.700;2023-03-01T08:02:52;11.10;48.20
63013;DHT22;62113;45.624;11.700;2023-03-01T08:05:17;11.50;47.60
63013;DHT22;62113;45.624;11.700;2023-03-01T08:07:43;11.80;47.00
63013;DHT22;62113;45.624;11.700;2023-03-01T08:10:09;12.00;46.00
63013;DHT22;62113;45.624;11.700;2023-03-01T08:12:35;12.20;45.50
63013;DHT22;62113;45.624;11.700;2023-03-01T08:15:00;12.20;45.30
63013;DHT22;62113;45.624;11.700;2023-03-01T08:17:26;12.30;44.80
63013;DHT22;62113;45.624;11.700;2023-03-01T08:19:52;12.30;44.70
63013;DHT22;62113;45.624;11.700;2023-03-01T08:22:17;12.20;44.40
63013;DHT22;62113;45.624;11.700;2023-03-01T08:24:43;12.20;44.60
63013;DHT22;62113;45.624;11.700;2023-03-01T08:27:08;12.00;44.50
63013;DHT22;62113;45.624;11.700;2023-03-01T08:29:34;11.90;44.70
63013;DHT22;62113;45.624;11.700;2023-03-01T08:32:00;11.80;45.00
63013;DHT22;62113;45.624;11.700;2023-03-01T08:34:26;11.80;45.20
63013;DHT22;62113;45.624;11.700;2023-03-01T08:36:51;11.80;45.40
63013;DHT22;62113;45.624;11.700;2023-03-01T08:39:19;11.90;45.50
63013;DHT22;62113;45.624;11.700;2023-03-01T08:41:46;12.00;45.40
63013;DHT22;62113;45.624;11.700;2023-03-01T08:44:13;12.00;45.40
63013;DHT22;62113;45.624;11.700;2023-03-01T08:46:40;12.00;45.50
63013;DHT22;62113;45.624;11.700;2023-03-01T08:49:15;11.90;45.40
63013;DHT22;62113;45.624;11.700;2023-03-01T08:51:42;11.90;45.40
63013;DHT22;62113;45.624;11.700;2023-03-01T08:54:11;11.90;45.50
63013;DHT22;62113;45.624;11.700;2023-03-01T08:56:37;11.80;45.30
63013;DHT22;62113;45.624;11.700;2023-03-01T08:59:03;11.80;45.50
63013;DHT22;62113;45.624;11.700;2023-03-01T09:01:29;11.80;45.50
63013;DHT22;62113;45.624;11.700;2023-03-01T09:03:55;11.80;45.60
63013;DHT22;62113;45.624;11.700;2023-03-01T09:06:20;11.80;45.80
63013;DHT22;62113;45.624;11.700;2023-03-01T09:08:48;11.90;45.90
63013;DHT22;62113;45.624;11.700;2023-03-01T09:11:16;12.00;45.70
63013;DHT22;62113;45.624;11.700;2023-03-01T09:13:44;12.20;45.70
63013;DHT22;62113;45.624;11.700;2023-03-01T09:16:11;12.30;45.30
63013;DHT22;62113;45.624;11.700;2023-03-01T09:18:37;12.40;44.30
63013;DHT22;62113;45.624;11.700;2023-03-01T09:21:08;12.50;43.80
63013;DHT22;62113;45.624;11.700;2023-03-01T09:23:39;12.70;42.90
63013;DHT22;62113;45.624;11.700;2023-03-01T09:26:06;12.70;41.40
63013;DHT22;62113;45.624;11.700;2023-03-01T09:28:33;12.80;40.90
63013;DHT22;62113;45.624;11.700;2023-03-01T09:31:00;13.30;41.40
63013;DHT22;62113;45.624;11.700;2023-03-01T09:33:26;14.40;40.50
63013;DHT22;62113;45.624;11.700;2023-03-01T09:36:00;16.00;38.60
63013;DHT22;62113;45.624;11.700;2023-03-01T09:38:26;17.30;35.50
63013;DHT22;62113;45.624;11.700;2023-03-01T09:40:52;18.00;33.00
63013;DHT22;62113;45.624;11.700;2023-03-01T09:45:59;19.20;30.00
63013;DHT22;62113;45.624;11.700;2023-03-01T09:48:33;19.00;30.40
63013;DHT22;62113;45.624;11.700;2023-03-01T09:51:03;18.10;30.40
63013;DHT22;62113;45.624;11.700;2023-03-01T09:53:32;18.00;31.30
63013;DHT22;62113;45.624;11.700;2023-03-01T09:56:05;17.80;31.20
63013;DHT22;62113;45.624;11.700;2023-03-01T10:01:30;17.70;31.80
63013;DHT22;62113;45.624;11.700;2023-03-01T10:09:38;16.70;32.50
63013;DHT22;62113;45.624;11.700;2023-03-01T10:12:30;17.10;31.90
63013;DHT22;62113;45.624;11.700;2023-03-01T10:15:15;17.50;31.20
63013;DHT22;62113;45.624;11.700;2023-03-01T10:18:00;17.60;30.90
63013;DHT22;62113;45.624;11.700;2023-03-01T10:21:01;17.30;31.40
63013;DHT22;62113;45.624;11.700;2023-03-01T10:23:29;17.20;32.20
63013;DHT22;62113;45.624;11.700;2023-03-01T10:31:47;16.30;32.90
63013;DHT22;62113;45.624;11.700;2023-03-01T10:34:26;15.90;34.20
63013;DHT22;62113;45.624;11.700;2023-03-01T10:36:55;15.40;35.10
63013;DHT22;62113;45.624;11.700;2023-03-01T10:39:23;15.10;35.60
63013;DHT22;62113;45.624;11.700;2023-03-01T10:41:56;15.20;36.00
63013;DHT22;62113;45.624;11.700;2023-03-01T10:44:41;15.30;36.00
63013;DHT22;62113;45.624;11.700;2023-03-01T10:47:17;15.40;35.80
63013;DHT22;62113;45.624;11.700;2023-03-01T10:50:03;15.20;35.60
63013;DHT22;62113;45.624;11.700;2023-03-01T10:52:36;15.20;36.20
63013;DHT22;62113;45.624;11.700;2023-03-01T11:00:47;14.50;37.40
63013;DHT22;62113;45.624;11.700;2023-03-01T11:03:16;14.40;37.90
63013;DHT22;62113;45.624;11.700;2023-03-01T11:08:51;14.00;38.90
63013;DHT22;62113;45.624;11.700;2023-03-01T11:14:15;13.70;39.50
63013;DHT22;62113;45.624;11.700;2023-03-01T11:16:43;13.70;39.60
63013;DHT22;62113;45.624;11.700;2023-03-01T11:21:38;13.60;40.30
63013;DHT22;62113;45.624;11.700;2023-03-01T11:24:09;13.60;40.50
63013;DHT22;62113;45.624;11.700;2023-03-01T11:26:40;13.50;40.60
63013;DHT22;62113;45.624;11.700;2023-03-01T11:29:17;13.40;41.10
63013;DHT22;62113;45.624;11.700;2023-03-01T11:31:47;13.50;41.30
63013;DHT22;62113;45.624;11.700;2023-03-01T11:34:19;13.50;41.60
63013;DHT22;62113;45.624;11.700;2023-03-01T11:36:51;13.40;42.10
63013;DHT22;62113;45.624;11.700;2023-03-01T11:40:40;13.30;41.80
63013;DHT22;62113;45.624;11.700;2023-03-01T11:42:46;13.30;41.70
63013;DHT22;62113;45.624;11.700;2023-03-01T11:45:13;13.30;41.50
63013;DHT22;62113;45.624;11.700;2023-03-01T11:50:41;13.20;40.60
63013;DHT22;62113;45.624;11.700;2023-03-01T11:53:20;13.20;40.40
63013;DHT22;62113;45.624;11.700;2023-03-01T11:56:09;13.00;39.80
63013;DHT22;62113;45.624;11.700;2023-03-01T11:59:00;13.00;40.00
63013;DHT22;62113;45.624;11.700;2023-03-01T12:01:40;13.00;40.00
63013;DHT22;62113;45.624;11.700;2023-03-01T12:07:20;13.10;39.80
63013;DHT22;62113;45.624;11.700;2023-03-01T12:10:01;13.20;40.30
63013;DHT22;62113;45.624;11.700;2023-03-01T12:12:53;13.10;39.40
63013;DHT22;62113;45.624;11.700;2023-03-01T12:31:38;12.90;40.60
63013;DHT22;62113;45.624;11.700;2023-03-01T12:49:56;12.70;41.10
63013;DHT22;62113;45.624;11.700;2023-03-01T12:54:57;12.60;40.90
63013;DHT22;62113;45.624;11.700;2023-03-01T12:57:37;12.50;41.10
63013;DHT22;62113;45.624;11.700;2023-03-01T13:00:25;12.30;42.00
63013;DHT22;62113;45.624;11.700;2023-03-01T13:05:40;12.40;42.20
63013;DHT22;62113;45.624;11.700;2023-03-01T13:11:03;12.30;43.10
63013;DHT22;62113;45.624;11.700;2023-03-01T13:13:31;12.20;43.70
63013;DHT22;62113;45.624;11.700;2023-03-01T13:15:56;12.30;44.30
63013;DHT22;62113;45.624;11.700;2023-03-01T13:20:49;12.10;45.40
63013;DHT22;62113;45.624;11.700;2023-03-01T13:26:17;11.90;48.70
63013;DHT22;62113;45.624;11.700;2023-03-01T13:28:47;11.80;51.40
63013;DHT22;62113;45.624;11.700;2023-03-01T13:33:48;11.60;53.50
63013;DHT22;62113;45.624;11.700;2023-03-01T13:38:56;11.20;55.20
63013;DHT22;62113;45.624;11.700;2023-03-01T13:49:58;11.10;56.60
63013;DHT22;62113;45.624;11.700;2023-03-01T13:52:44;11.10;56.80
63013;DHT22;62113;45.624;11.700;2023-03-01T13:55:21;11.20;56.10
63013;DHT22;62113;45.624;11.700;2023-03-01T13:57:57;11.20;56.70
63013;DHT22;62113;45.624;11.700;2023-03-01T14:00:32;11.20;56.60
63013;DHT22;62113;45.624;11.700;2023-03-01T14:05:26;11.30;55.80
63013;DHT22;62113;45.624;11.700;2023-03-01T14:07:52;11.30;55.20
63013;DHT22;62113;45.624;11.700;2023-03-01T14:10:17;11.30;55.00
63013;DHT22;62113;45.624;11.700;2023-03-01T14:13:25;11.30;55.00
63013;DHT22;62113;45.624;11.700;2023-03-01T14:18:48;11.40;55.00
63013;DHT22;62113;45.624;11.700;2023-03-01T14:21:18;11.30;54.80
63013;DHT22;62113;45.624;11.700;2023-03-01T14:23:44;11.30;54.70
63013;DHT22;62113;45.624;11.700;2023-03-01T14:26:12;11.30;55.40
63013;DHT22;62113;45.624;11.700;2023-03-01T14:28:38;11.40;55.00
63013;DHT22;62113;45.624;11.700;2023-03-01T14:31:39;11.40;55.10
63013;DHT22;62113;45.624;11.700;2023-03-01T14:34:05;11.40;54.60
63013;DHT22;62113;45.624;11.700;2023-03-01T14:36:33;11.40;54.60
63013;DHT22;62113;45.624;11.700;2023-03-01T14:39:00;11.50;55.10
63013;DHT22;62113;45.624;11.700;2023-03-01T14:41:33;11.50;55.10
63013;DHT22;62113;45.624;11.700;2023-03-01T14:44:16;11.60;54.60
63013;DHT22;62113;45.624;11.700;2023-03-01T14:46:45;11.60;54.90
63013;DHT22;62113;45.624;11.700;2023-03-01T14:49:14;11.70;54.00
63013;DHT22;62113;45.624;11.700;2023-03-01T14:51:43;11.60;53.80
63013;DHT22;62113;45.624;11.700;2023-03-01T14:57:01;11.60;54.00
63013;DHT22;62113;45.624;11.700;2023-03-01T14:59:27;11.60;54.00
63013;DHT22;62113;45.624;11.700;2023-03-01T15:01:55;11.70;54.00
63013;DHT22;62113;45.624;11.700;2023-03-01T15:04:22;11.70;53.80
63013;DHT22;62113;45.624;11.700;2023-03-01T15:06:50;11.60;53.70
63013;DHT22;62113;45.624;11.700;2023-03-01T15:09:16;11.60;53.30
63013;DHT22;62113;45.624;11.700;2023-03-01T15:11:43;11.60;53.10
63013;DHT22;62113;45.624;11.700;2023-03-01T15:14:49;11.60;53.30
63013;DHT22;62113;45.624;11.700;2023-03-01T15:17:35;11.50;53.30
63013;DHT22;62113;45.624;11.700;2023-03-01T15:20:03;11.50;53.40
63013;DHT22;62113;45.624;11.700;2023-03-01T15:22:29;11.50;53.40
63013;DHT22;62113;45.624;11.700;2023-03-01T15:24:55;11.50;53.40
63013;DHT22;62113;45.624;11.700;2023-03-01T15:27:23;11.50;53.50
63013;DHT22;62113;45.624;11.700;2023-03-01T15:29:58;11.50;53.40
63013;DHT22;62113;45.624;11.700;2023-03-01T15:32:36;11.50;53.50
63013;DHT22;62113;45.624;11.700;2023-03-01T15:35:33;11.50;53.40
63013;DHT22;62113;45.624;11.700;2023-03-01T15:38:01;11.50;53.50
63013;DHT22;62113;45.624;11.700;2023-03-01T15:40:28;11.50;53.40
63013;DHT22;62113;45.624;11.700;2023-03-01T15:43:02;11.50;53.60
63013;DHT22;62113;45.624;11.700;2023-03-01T15:45:30;11.40;53.20
63013;DHT22;62113;45.624;11.700;2023-03-01T15:48:15;11.40;53.20
63013;DHT22;62113;45.624;11.700;2023-03-01T15:50:42;11.40;53.20
63013;DHT22;62113;45.624;11.700;2023-03-01T15:53:13;11.40;53.20
63013;DHT22;62113;45.624;11.700;2023-03-01T15:55:40;11.40;53.30
63013;DHT22;62113;45.624;11.700;2023-03-01T15:58:12;11.40;53.30
63013;DHT22;62113;45.624;11.700;2023-03-01T16:00:38;11.40;53.50
63013;DHT22;62113;45.624;11.700;2023-03-01T16:03:05;11.40;53.40
63013;DHT22;62113;45.624;11.700;2023-03-01T16:05:32;11.40;53.50
63013;DHT22;62113;45.624;11.700;2023-03-01T16:08:00;11.40;53.50
63013;DHT22;62113;45.624;11.700;2023-03-01T16:10:26;11.40;53.50
63013;DHT22;62113;45.624;11.700;2023-03-01T16:12:52;11.40;53.40
63013;DHT22;62113;45.624;11.700;2023-03-01T16:17:43;11.40;53.60
63013;DHT22;62113;45.624;11.700;2023-03-01T16:20:09;11.40;53.20
63013;DHT22;62113;45.624;11.700;2023-03-01T16:22:35;11.40;53.40
63013;DHT22;62113;45.624;11.700;2023-03-01T16:25:01;11.40;53.30
63013;DHT22;62113;45.624;11.700;2023-03-01T16:27:27;11.30;54.10
63013;DHT22;62113;45.624;11.700;2023-03-01T16:29:53;11.30;54.90
63013;DHT22;62113;45.624;11.700;2023-03-01T16:32:19;11.20;54.70
63013;DHT22;62113;45.624;11.700;2023-03-01T16:34:45;11.20;56.20
63013;DHT22;62113;45.624;11.700;2023-03-01T16:37:13;11.20;56.60
63013;DHT22;62113;45.624;11.700;2023-03-01T16:39:38;11.10;57.50
63013;DHT22;62113;45.624;11.700;2023-03-01T16:42:04;11.00;57.30
63013;DHT22;62113;45.624;11.700;2023-03-01T16:44:29;10.90;58.70
63013;DHT22;62113;45.624;11.700;2023-03-01T16:46:55;10.90;58.60
63013;DHT22;62113;45.624;11.700;2023-03-01T16:49:21;10.80;59.60
63013;DHT22;62113;45.624;11.700;2023-03-01T16:51:46;10.70;58.90
63013;DHT22;62113;45.624;11.700;2023-03-01T16:54:12;10.70;59.60
63013;DHT22;62113;45.624;11.700;2023-03-01T16:56:38;10.60;59.50
63013;DHT22;62113;45.624;11.700;2023-03-01T16:59:05;10.60;59.70
63013;DHT22;62113;45.624;11.700;2023-03-01T17:01:31;10.50;60.10
63013;DHT22;62113;45.624;11.700;2023-03-01T17:04:04;10.50;60.30
63013;DHT22;62113;45.624;11.700;2023-03-01T17:06:29;10.60;60.10
63013;DHT22;62113;45.624;11.700;2023-03-01T17:08:57;10.60;60.60
63013;DHT22;62113;45.624;11.700;2023-03-01T17:11:22;10.60;60.40
63013;DHT22;62113;45.624;11.700;2023-03-01T17:13:48;10.70;61.60
63013;DHT22;62113;45.624;11.700;2023-03-01T17:16:16;10.70;60.90
63013;DHT22;62113;45.624;11.700;2023-03-01T17:18:41;10.70;61.00
63013;DHT22;62113;45.624;11.700;2023-03-01T17:21:08;10.70;61.10
63013;DHT22;62113;45.624;11.700;2023-03-01T17:23:35;10.70;61.20
63013;DHT22;62113;45.624;11.700;2023-03-01T17:26:02;10.70;61.40
63013;DHT22;62113;45.624;11.700;2023-03-01T17:28:29;10.70;62.20
63013;DHT22;62113;45.624;11.700;2023-03-01T17:30:56;10.70;61.70
63013;DHT22;62113;45.624;11.700;2023-03-01T17:33:21;10.70;63.30